createdAt,value
2019-01-03T00:02:10.386Z,6.67
2019-01-03T00:04:59.447Z,5.10
2019-01-03T00:07:49.041Z,11.97
2019-01-03T00:10:37.799Z,8.17
2019-01-03T00:13:26.543Z,7.27
2019-01-03T00:16:15.186Z,4.00
2019-01-03T00:19:04.184Z,6.17
2019-01-03T00:21:53.012Z,6.67
2019-01-03T00:24:33.375Z,5.43
2019-01-03T00:27:22.326Z,7.30
2019-01-03T00:30:10.978Z,7.63
2019-01-03T00:32:59.628Z,6.30
2019-01-03T00:35:48.488Z,8.67
2019-01-03T00:38:37.074Z,4.50
2019-01-03T00:41:26.066Z,5.37
2019-01-03T00:44:10.079Z,5.50
2019-01-03T00:46:59.738Z,4.63
2019-01-03T00:49:47.278Z,10.70
2019-01-03T00:52:37.236Z,5.80
2019-01-03T00:55:26.406Z,5.77
2019-01-03T00:58:15.666Z,7.27
2019-01-03T01:01:05.656Z,6.57
2019-01-03T01:03:54.836Z,4.87
2019-01-03T01:06:43.798Z,6.83
2019-01-03T01:09:31.106Z,4.20
2019-01-03T01:12:19.647Z,3.50
2019-01-03T01:15:08.218Z,5.50
2019-01-03T01:17:57.076Z,4.53
2019-01-03T01:20:41.836Z,4.53
2019-01-03T01:23:30.886Z,5.13
2019-01-03T01:26:19.438Z,6.87
2019-01-03T01:29:08.300Z,5.70
2019-01-03T01:31:56.756Z,7.70
2019-01-03T01:34:42.429Z,4.10
2019-01-03T01:37:31.488Z,4.90
2019-01-03T01:40:19.348Z,2.23
2019-01-03T01:43:08.298Z,6.83
2019-01-03T01:45:57.065Z,4.40
2019-01-03T01:48:45.590Z,6.07
2019-01-03T01:51:34.457Z,5.17
2019-01-03T01:54:23.416Z,4.23
2019-01-03T01:57:12.268Z,5.50
2019-01-03T02:00:01.076Z,11.07
2019-01-03T02:02:43.737Z,5.90
2019-01-03T02:05:32.918Z,5.10
2019-01-03T02:08:21.776Z,5.53
2019-01-03T02:11:10.320Z,7.73
2019-01-03T02:13:58.976Z,5.27
2019-01-03T02:16:43.936Z,8.47
2019-01-03T02:19:32.886Z,8.17
2019-01-03T02:22:14.077Z,4.20
2019-01-03T02:25:01.818Z,4.33
2019-01-03T02:27:50.446Z,6.37
2019-01-03T02:30:38.189Z,4.27
2019-01-03T02:33:26.837Z,5.40
2019-01-03T02:36:15.589Z,5.97
2019-01-03T02:39:04.057Z,5.93
2019-01-03T02:41:53.618Z,7.20
2019-01-03T02:44:42.267Z,4.73
2019-01-03T02:47:30.836Z,5.40
2019-01-03T02:50:20.399Z,6.73
2019-01-03T02:53:09.878Z,4.83
2019-01-03T02:56:01.077Z,4.37
2019-01-03T02:58:52.089Z,5.17
2019-01-03T03:01:45.098Z,3.33
2019-01-03T03:04:34.936Z,4.70
2019-01-03T03:07:23.696Z,5.80
2019-01-03T03:10:13.058Z,5.03
2019-01-03T03:12:53.316Z,5.27
2019-01-03T03:15:41.879Z,5.03
2019-01-03T03:18:30.606Z,5.13
2019-01-03T03:21:19.277Z,3.17
2019-01-03T03:24:08.037Z,4.90
2019-01-03T03:26:53.197Z,7.23
2019-01-03T03:29:41.647Z,3.53
2019-01-03T03:32:30.721Z,2.93
2019-01-03T03:35:19.876Z,5.37
2019-01-03T03:38:05.976Z,4.57
2019-01-03T03:40:55.655Z,3.87
2019-01-03T03:43:45.436Z,3.20
2019-01-03T03:46:34.695Z,3.83
2019-01-03T03:49:18.527Z,3.80
2019-01-03T03:52:07.916Z,5.30
2019-01-03T03:54:56.878Z,2.93
2019-01-03T03:57:45.836Z,7.60
2019-01-03T04:00:34.799Z,6.20
2019-01-03T04:03:23.437Z,9.37
2019-01-03T04:06:12.088Z,6.50
2019-01-03T04:09:00.759Z,3.87
2019-01-03T04:11:50.835Z,5.23
2019-01-03T04:14:39.387Z,6.87
2019-01-03T04:17:27.926Z,6.23
2019-01-03T04:20:13.222Z,3.30
2019-01-03T04:23:02.477Z,9.67
2019-01-03T04:25:51.067Z,7.83
2019-01-03T04:28:39.880Z,4.33
2019-01-03T04:31:25.258Z,5.10
2019-01-03T04:34:14.009Z,11.80
2019-01-03T04:37:02.558Z,9.73
2019-01-03T04:39:51.437Z,7.23
2019-01-03T04:42:40.499Z,7.53
2019-01-03T04:45:21.066Z,4.77
2019-01-03T04:48:08.156Z,9.13
2019-01-03T04:50:57.539Z,4.90
2019-01-03T04:53:46.916Z,5.03
2019-01-03T04:56:35.669Z,8.10
2019-01-03T04:59:24.740Z,7.40
2019-01-03T05:02:13.696Z,9.17
2019-01-03T05:05:02.456Z,7.50
2019-01-03T05:07:51.417Z,6.00
2019-01-03T05:10:30.958Z,5.43
2019-01-03T05:13:20.216Z,5.73
2019-01-03T05:16:08.647Z,15.07
2019-01-03T05:18:57.418Z,4.10
2019-01-03T05:21:46.101Z,6.47
2019-01-03T05:24:35.066Z,8.53
2019-01-03T05:27:23.787Z,11.90
2019-01-03T05:30:18.221Z,5.07
2019-01-03T05:33:03.457Z,5.77
2019-01-03T05:35:52.416Z,8.27
2019-01-03T05:38:41.578Z,4.00
2019-01-03T05:41:31.778Z,5.03
2019-01-03T05:44:20.939Z,3.83
2019-01-03T05:47:09.798Z,8.10
2019-01-03T05:49:58.770Z,8.47
2019-01-03T05:52:47.818Z,5.73
2019-01-03T05:55:36.966Z,4.20
2019-01-03T05:58:26.037Z,6.20
2019-01-03T06:01:12.958Z,8.53
2019-01-03T06:04:02.926Z,6.63
2019-01-03T06:06:52.774Z,6.67
2019-01-03T06:09:39.838Z,7.33
2019-01-03T06:12:29.818Z,7.73
2019-01-03T06:15:19.597Z,9.17
2019-01-03T06:18:08.858Z,5.80
2019-01-03T06:20:57.818Z,10.63
2019-01-03T06:23:46.466Z,10.73
2019-01-03T06:26:35.227Z,10.67
2019-01-03T06:29:23.945Z,19.50
2019-01-03T06:32:12.858Z,7.03
2019-01-03T06:35:01.698Z,6.43
2019-01-03T06:37:50.257Z,6.73
2019-01-03T06:40:32.577Z,5.23
2019-01-03T06:43:21.318Z,6.83
2019-01-03T06:46:10.077Z,6.77
2019-01-03T06:48:58.840Z,9.10
2019-01-03T06:51:47.478Z,3.97
2019-01-03T06:54:35.958Z,9.17
2019-01-03T06:57:24.798Z,8.40
2019-01-03T07:00:13.437Z,9.43
2019-01-03T07:03:02.398Z,6.50
2019-01-03T07:05:51.158Z,12.80
2019-01-03T07:08:40.006Z,14.50
2019-01-03T07:11:28.777Z,16.70
2019-01-03T07:14:17.418Z,12.27
2019-01-03T07:17:06.379Z,8.83
2019-01-03T07:19:54.958Z,9.93
2019-01-03T07:22:43.898Z,7.10
2019-01-03T07:25:32.646Z,9.93
2019-01-03T07:28:21.438Z,10.23
2019-01-03T07:31:10.678Z,7.63
2019-01-03T07:33:59.438Z,11.07
2019-01-03T07:36:48.198Z,8.97
2019-01-03T07:39:37.078Z,14.87
2019-01-03T07:42:25.798Z,12.63
2019-01-03T07:45:15.077Z,11.70
2019-01-03T07:48:04.078Z,13.27
2019-01-03T07:50:52.999Z,15.53
2019-01-03T07:53:42.446Z,8.47
2019-01-03T07:56:31.318Z,9.97
2019-01-03T07:59:20.000Z,8.47
2019-01-03T08:02:08.838Z,11.93
2019-01-03T08:04:57.481Z,11.77
2019-01-03T08:07:46.678Z,12.23
2019-01-03T08:10:35.285Z,10.10
2019-01-03T08:13:24.358Z,10.67
2019-01-03T08:16:13.078Z,8.93
2019-01-03T08:18:52.558Z,6.80
2019-01-03T08:21:35.598Z,11.07
2019-01-03T08:24:24.438Z,13.40
2019-01-03T08:27:13.598Z,10.17
2019-01-03T08:29:59.798Z,10.03
2019-01-03T08:32:48.558Z,10.87
2019-01-03T08:35:37.708Z,11.27
2019-01-03T08:38:24.437Z,12.63
2019-01-03T08:41:13.278Z,15.30
2019-01-03T08:44:01.838Z,22.20
2019-01-03T08:46:50.597Z,11.57
2019-01-03T08:49:39.358Z,19.97
2019-01-03T08:52:27.998Z,17.83
2019-01-03T08:55:17.078Z,29.00
2019-01-03T08:58:06.038Z,15.67
2019-01-03T09:00:49.478Z,16.67
2019-01-03T09:03:38.318Z,18.37
2019-01-03T09:06:27.077Z,12.27
2019-01-03T09:09:15.958Z,14.13
2019-01-03T09:12:04.768Z,14.00
2019-01-03T09:14:53.757Z,16.00
2019-01-03T09:17:42.710Z,21.40
2019-01-03T09:20:31.448Z,21.93
2019-01-03T09:23:20.317Z,18.47
2019-01-03T09:26:05.286Z,15.73
2019-01-03T09:28:54.438Z,19.83
2019-01-03T09:31:43.206Z,18.37
2019-01-03T09:34:32.078Z,13.67
2019-01-03T09:37:18.070Z,14.20
2019-01-03T09:40:06.838Z,14.67
2019-01-03T09:42:55.365Z,13.80
2019-01-03T09:45:25.269Z,15.23
2019-01-03T09:47:55.089Z,15.40
2019-01-03T09:50:25.214Z,14.77
2019-01-03T09:52:56.078Z,18.73
2019-01-03T09:55:25.845Z,15.57
2019-01-03T09:57:56.165Z,15.87
2019-01-03T10:00:25.878Z,16.17
2019-01-03T10:02:55.807Z,20.27
2019-01-03T10:05:25.806Z,12.90
2019-01-03T10:07:56.645Z,12.67
2019-01-03T10:10:26.656Z,13.63
2019-01-03T10:12:56.598Z,12.13
2019-01-03T10:15:26.600Z,24.80
2019-01-03T10:17:56.606Z,25.83
2019-01-03T10:20:26.517Z,18.90
2019-01-03T10:22:56.431Z,13.87
2019-01-03T10:25:26.446Z,16.67
2019-01-03T10:27:56.678Z,13.40
2019-01-03T10:30:34.077Z,11.47
2019-01-03T10:33:04.494Z,12.43
2019-01-03T10:35:34.206Z,13.20
2019-01-03T10:38:05.446Z,10.17
2019-01-03T10:40:35.565Z,14.87
2019-01-03T10:43:06.406Z,12.17
2019-01-03T10:45:36.718Z,12.47
2019-01-03T10:48:06.443Z,11.03
2019-01-03T10:50:36.047Z,15.27
2019-01-03T10:53:06.158Z,13.43
2019-01-03T10:55:35.861Z,20.70
2019-01-03T10:58:05.806Z,12.73
2019-01-03T11:00:36.206Z,17.03
2019-01-03T11:03:06.320Z,12.60
2019-01-03T11:05:36.251Z,16.40
2019-01-03T11:08:06.366Z,11.23
2019-01-03T11:10:36.481Z,17.40
2019-01-03T11:13:06.391Z,14.17
2019-01-03T11:15:36.197Z,10.40
2019-01-03T11:18:06.230Z,13.50
2019-01-03T11:20:35.942Z,18.03
2019-01-03T11:23:06.767Z,16.37
2019-01-03T11:25:37.014Z,15.70
2019-01-03T11:28:07.405Z,12.87
2019-01-03T11:30:37.638Z,15.10
2019-01-03T11:33:07.759Z,16.43
2019-01-03T11:35:37.765Z,13.63
2019-01-03T11:38:08.201Z,14.13
2019-01-03T11:40:38.318Z,13.13
2019-01-03T11:43:08.325Z,9.07
2019-01-03T11:45:38.166Z,12.33
2019-01-03T11:48:10.830Z,11.30
2019-01-03T11:50:40.839Z,12.97
2019-01-03T11:53:13.409Z,13.10
2019-01-03T11:55:43.845Z,11.07
2019-01-03T11:58:13.766Z,10.50
2019-01-03T12:00:43.767Z,17.73
2019-01-03T12:03:13.886Z,13.63
2019-01-03T12:05:43.926Z,14.50
2019-01-03T12:08:14.325Z,15.07
2019-01-03T12:10:44.757Z,13.83
2019-01-03T12:13:14.998Z,16.40
2019-01-03T12:15:45.198Z,14.57
2019-01-03T12:18:15.349Z,11.60
2019-01-03T12:20:45.349Z,15.13
2019-01-03T12:23:15.757Z,12.63
2019-01-03T12:25:45.797Z,19.20
2019-01-03T12:28:15.797Z,19.87
2019-01-03T12:30:45.806Z,20.07
2019-01-03T12:33:18.290Z,18.13
2019-01-03T12:35:48.077Z,14.07
2019-01-03T12:38:19.350Z,12.83
2019-01-03T12:40:52.566Z,14.27
2019-01-03T12:43:24.078Z,17.00
2019-01-03T12:45:54.405Z,16.25
2019-01-03T12:48:32.838Z,11.57
2019-01-03T12:51:05.397Z,10.60
2019-01-03T12:53:36.748Z,14.57
2019-01-03T12:56:06.757Z,14.70
2019-01-03T12:58:37.390Z,13.23
2019-01-03T13:01:07.921Z,12.43
2019-01-03T13:03:38.749Z,10.47
2019-01-03T13:06:10.078Z,11.30
2019-01-03T13:08:40.743Z,15.20
2019-01-03T13:11:11.568Z,16.23
2019-01-03T13:13:41.806Z,15.07
2019-01-03T13:16:12.317Z,10.60
2019-01-03T13:18:42.958Z,15.93
2019-01-03T13:21:13.485Z,14.37
2019-01-03T13:23:44.637Z,11.50
2019-01-03T13:26:15.152Z,8.37
2019-01-03T13:28:45.365Z,8.00
2019-01-03T13:31:15.806Z,6.43
2019-01-03T13:33:46.326Z,8.77
2019-01-03T13:36:16.758Z,9.83
2019-01-03T13:38:48.808Z,13.97
2019-01-03T13:41:19.149Z,16.30
2019-01-03T13:43:49.381Z,12.87
2019-01-03T13:46:20.078Z,10.43
2019-01-03T13:48:50.006Z,32.33
2019-01-03T13:51:20.568Z,26.73
2019-01-03T13:53:51.077Z,15.90
2019-01-03T13:56:20.998Z,18.53
2019-01-03T13:58:51.438Z,12.77
2019-01-03T14:01:21.438Z,18.90
2019-01-03T14:03:51.446Z,18.33
2019-01-03T14:06:21.798Z,12.83
2019-01-03T14:08:51.997Z,12.50
2019-01-03T14:11:23.358Z,11.33
2019-01-03T14:13:53.869Z,16.17
2019-01-03T14:16:23.678Z,19.43
2019-01-03T14:18:55.637Z,13.17
2019-01-03T14:21:26.998Z,15.47
2019-01-03T14:23:57.317Z,16.83
2019-01-03T14:26:27.837Z,18.10
2019-01-03T14:28:57.845Z,21.00
2019-01-03T14:31:27.677Z,19.30
2019-01-03T14:33:58.001Z,17.70
2019-01-03T14:36:28.839Z,13.87
2019-01-03T14:39:00.598Z,18.93
2019-01-03T14:41:30.807Z,18.03
2019-01-03T14:44:01.078Z,20.37
2019-01-03T14:46:31.757Z,17.17
2019-01-03T14:49:01.999Z,21.20
2019-01-03T14:51:32.719Z,24.00
2019-01-03T14:54:02.838Z,22.20
2019-01-03T14:56:32.877Z,18.77
2019-01-03T14:59:03.078Z,18.60
2019-01-03T15:01:33.317Z,18.47
2019-01-03T15:04:07.809Z,24.73
2019-01-03T15:06:38.450Z,19.00
2019-01-03T15:09:08.798Z,16.13
2019-01-03T15:11:39.198Z,15.40
2019-01-03T15:14:09.439Z,22.23
2019-01-03T15:16:40.482Z,13.83
2019-01-03T15:19:10.918Z,12.90
2019-01-03T15:21:40.998Z,19.00
2019-01-03T15:24:11.838Z,17.73
2019-01-03T15:26:42.077Z,17.43
2019-01-03T15:29:12.277Z,15.27
2019-01-03T15:31:42.190Z,17.17
2019-01-03T15:34:12.718Z,17.23
2019-01-03T15:36:42.837Z,19.87
2019-01-03T15:39:12.758Z,18.77
2019-01-03T15:41:43.398Z,21.23
2019-01-03T15:44:13.838Z,18.50
2019-01-03T15:46:44.438Z,16.33
2019-01-03T15:49:23.367Z,14.33
2019-01-03T15:51:54.320Z,16.63
2019-01-03T15:54:24.838Z,19.60
2019-01-03T15:56:55.478Z,19.50
2019-01-03T15:59:26.432Z,11.93
2019-01-03T16:01:57.430Z,14.33
2019-01-03T16:04:28.490Z,13.77
2019-01-03T16:06:59.038Z,13.30
2019-01-03T16:09:29.561Z,17.47
2019-01-03T16:12:00.469Z,25.30
2019-01-03T16:14:31.318Z,14.90
2019-01-03T16:17:01.638Z,20.27
2019-01-03T16:19:31.678Z,16.30
2019-01-03T16:22:01.798Z,18.83
2019-01-03T16:24:32.078Z,21.07
2019-01-03T16:27:03.438Z,20.90
2019-01-03T16:29:34.086Z,20.10
2019-01-03T16:32:04.838Z,20.40
2019-01-03T16:34:35.238Z,26.20
2019-01-03T16:37:06.607Z,17.80
2019-01-03T16:39:38.958Z,15.20
2019-01-03T16:42:09.199Z,15.73
2019-01-03T16:44:39.838Z,31.20
2019-01-03T16:47:10.958Z,18.30
2019-01-03T16:49:41.918Z,16.20
2019-01-03T16:52:12.838Z,19.77
2019-01-03T16:54:43.678Z,23.63
2019-01-03T16:57:14.606Z,18.93
2019-01-03T16:59:46.477Z,25.77
2019-01-03T17:02:16.869Z,26.67
2019-01-03T17:04:47.822Z,17.67
2019-01-03T17:07:18.553Z,27.17
2019-01-03T17:09:48.878Z,35.67
2019-01-03T17:12:19.757Z,23.13
2019-01-03T17:14:50.077Z,21.07
2019-01-03T17:17:21.086Z,27.53
2019-01-03T17:19:51.200Z,27.17
2019-01-03T17:22:21.322Z,23.63
2019-01-03T17:24:51.758Z,24.77
2019-01-03T17:27:22.086Z,22.73
2019-01-03T17:29:52.718Z,21.63
2019-01-03T17:32:22.918Z,16.37
2019-01-03T17:34:52.959Z,23.10
2019-01-03T17:37:25.809Z,41.13
2019-01-03T17:39:56.078Z,25.83
2019-01-03T17:42:27.199Z,18.70
2019-01-03T17:44:57.406Z,23.53
2019-01-03T17:47:27.719Z,19.07
2019-01-03T17:49:57.831Z,18.10
2019-01-03T17:52:28.078Z,15.07
2019-01-03T17:54:59.840Z,13.33
2019-01-03T17:57:30.079Z,16.17
2019-01-03T18:00:00.448Z,17.13
2019-01-03T18:02:30.598Z,22.33
2019-01-03T18:05:00.838Z,28.17
2019-01-03T18:07:32.599Z,30.23
2019-01-03T18:10:02.806Z,31.40
2019-01-03T18:12:33.511Z,25.47
2019-01-03T18:15:03.838Z,26.43
2019-01-03T18:17:34.478Z,17.83
2019-01-03T18:20:05.330Z,17.03
2019-01-03T18:22:35.758Z,17.57
2019-01-03T18:25:05.649Z,19.37
2019-01-03T18:27:36.278Z,22.03
2019-01-03T18:30:07.038Z,18.70
2019-01-03T18:32:37.128Z,18.57
2019-01-03T18:35:07.478Z,18.87
2019-01-03T18:37:37.278Z,17.50
2019-01-03T18:40:08.838Z,19.43
2019-01-03T18:42:38.846Z,18.17
2019-01-03T18:45:10.502Z,18.27
2019-01-03T18:47:40.838Z,21.37
2019-01-03T18:50:11.478Z,39.63
2019-01-03T18:52:42.371Z,31.40
2019-01-03T18:55:13.638Z,21.67
2019-01-03T18:57:44.999Z,17.57
2019-01-03T19:00:16.638Z,16.83
2019-01-03T19:02:49.158Z,15.87
2019-01-03T19:05:21.078Z,18.73
2019-01-03T19:07:52.238Z,17.87
2019-01-03T19:10:28.300Z,19.93
2019-01-03T19:12:55.727Z,19.70
2019-01-03T19:15:26.368Z,20.03
2019-01-03T19:17:57.087Z,21.93
2019-01-03T19:20:27.430Z,24.97
2019-01-03T19:22:59.079Z,19.17
2019-01-03T19:25:37.646Z,21.10
2019-01-03T19:28:08.518Z,23.27
2019-01-03T19:30:44.711Z,28.90
2019-01-03T19:33:20.047Z,26.33
2019-01-03T19:35:50.758Z,38.53
2019-01-03T19:38:20.878Z,24.27
2019-01-03T19:40:51.206Z,23.70
2019-01-03T19:43:22.670Z,26.53
2019-01-03T19:46:08.334Z,26.40
2019-01-03T19:48:42.958Z,23.93
2019-01-03T19:51:17.472Z,28.53
2019-01-03T19:53:54.246Z,28.67
2019-01-03T19:56:31.083Z,26.80
2019-01-03T19:59:08.094Z,28.43
2019-01-03T20:01:44.477Z,24.20
2019-01-03T20:04:21.247Z,30.03
2019-01-03T20:06:59.358Z,28.77
2019-01-03T20:09:36.446Z,24.20
2019-01-03T20:12:13.918Z,27.30
2019-01-03T20:14:52.429Z,24.50
2019-01-03T20:17:29.311Z,26.57
2019-01-03T20:20:06.395Z,24.93
2019-01-03T20:22:42.487Z,26.47
2019-01-03T20:25:19.084Z,22.53
2019-01-03T20:27:56.526Z,23.33
2019-01-03T20:30:35.438Z,28.50
2019-01-03T20:33:50.326Z,28.87
2019-01-03T20:36:57.062Z,29.40
2019-01-03T20:39:51.597Z,29.87
2019-01-03T20:46:05.398Z,24.83
2019-01-03T20:48:46.319Z,26.83
2019-01-03T20:51:32.342Z,29.20
2019-01-03T20:54:27.438Z,26.50
2019-01-03T20:57:04.182Z,31.20
2019-01-03T20:59:47.206Z,27.13
2019-01-03T21:02:36.087Z,24.90
2019-01-03T21:05:37.609Z,27.07
2019-01-03T21:08:21.383Z,22.47
2019-01-03T21:10:59.078Z,24.33
2019-01-03T21:13:43.607Z,22.83
2019-01-03T21:16:30.769Z,24.23
2019-01-03T21:19:16.406Z,25.37
2019-01-03T21:21:59.839Z,26.80
2019-01-03T21:24:34.277Z,23.57
2019-01-03T21:27:39.423Z,20.40
2019-01-03T21:30:45.975Z,18.80
2019-01-03T23:36:15.486Z,18.00
2019-01-03T23:38:45.922Z,21.90
2019-01-03T23:41:16.518Z,18.37
2019-01-03T23:43:47.279Z,18.97
2019-01-03T23:46:18.205Z,19.73
2019-01-03T23:48:48.956Z,20.57
2019-01-03T23:51:19.274Z,22.17
2019-01-03T23:53:50.002Z,20.73
2019-01-03T23:56:20.834Z,20.73
2019-01-03T23:58:51.552Z,21.70
